createdAt,value
2019-04-26T19:33:11.720Z,56.40
2019-04-26T19:38:15.391Z,56.80
2019-04-26T19:43:30.288Z,56.10
2019-04-26T19:48:56.571Z,55.40
2019-04-26T19:54:07.757Z,55.40
2019-04-26T19:59:12.396Z,54.70
2019-04-26T20:04:17.165Z,54.40
2019-04-26T20:09:22.763Z,54.20
2019-04-26T20:14:39.883Z,54.00
2019-04-26T20:19:37.188Z,53.90
2019-04-26T20:24:39.202Z,53.90
2019-04-26T20:29:47.236Z,54.00
2019-04-26T20:35:04.639Z,53.80
2019-04-26T20:40:18.516Z,53.70
2019-04-26T20:45:16.966Z,53.70
2019-04-26T20:50:21.789Z,53.60
2019-04-26T20:55:30.957Z,53.60
2019-04-26T21:00:36.557Z,53.50
2019-04-26T21:05:46.067Z,53.60
2019-04-26T21:10:44.312Z,53.60
2019-04-26T21:15:57.935Z,53.60
2019-04-26T21:20:54.331Z,53.50
2019-04-26T21:26:21.635Z,53.40
2019-04-26T21:31:52.348Z,53.50
2019-04-26T21:37:05.319Z,53.40
2019-04-26T21:42:10.727Z,53.70
2019-04-26T21:47:15.092Z,53.50
2019-04-26T21:52:21.484Z,53.30
2019-04-26T21:57:28.273Z,54.00
2019-04-26T22:02:34.934Z,53.20
2019-04-26T22:07:39.571Z,53.40
2019-04-26T22:12:45.248Z,53.20
2019-04-26T22:17:54.564Z,53.10
2019-04-26T22:23:35.915Z,53.00
2019-04-26T22:28:39.866Z,53.00
2019-04-26T22:33:44.648Z,53.00
2019-04-26T22:38:50.032Z,53.00
2019-04-26T22:44:15.063Z,52.80
2019-04-26T22:49:19.096Z,53.00
2019-04-26T22:54:24.836Z,52.90
2019-04-26T22:59:29.195Z,53.70
2019-04-26T23:04:33.144Z,53.00
2019-04-26T23:09:37.464Z,52.80
2019-04-26T23:14:55.075Z,52.90
2019-04-26T23:20:34.338Z,52.80
2019-04-26T23:25:35.525Z,53.00
2019-04-26T23:30:39.964Z,53.60
2019-04-26T23:35:47.556Z,53.00
2019-04-26T23:40:49.882Z,53.10
2019-04-26T23:45:54.359Z,53.10
2019-04-26T23:50:59.913Z,53.10
2019-04-26T23:56:04.290Z,52.80
